Highmore, South Dakota
Current Conditions -  °F | °C
As of 2:53 AM on Thursday 18 Dec 2014 (Local Time) from KPIR Reporting Station
Haze Haze  
Wind Chill:   Ceiling: 300
Heat Index: 19°   Visibility: 5mi
Dew Point: 18°   Wind: 10mph
Humidity: 96%   Direction: 130°SE
Pressure: 30.12"   Gusts: NA
Location:  44.52°N, 99.44°W
Report Text: KPIR 180853Z AUTO 13009KT 5SM BR OVC003 M07/M08 A3012 RMK AO2 SLP229 I1001 I3003 T10721078 55011
Loading
Personal Weather Stations






























Interactive Weather Map New forecast layout! Learn more

10-Day Weather Forecast

Advertisements
Track Severe Weather on mobile